sensor_id;sensor_type;location;lat;lon;timestamp;P1;durP1;ratioP1;P2;durP2;ratioP2
74793;SDS011;63320;50.768;6.724;2022-12-20T00:00:57;4.30;;;1.67;;
74793;SDS011;63320;50.768;6.724;2022-12-20T00:03:22;4.97;;;1.83;;
74793;SDS011;63320;50.768;6.724;2022-12-20T00:05:47;4.95;;;1.98;;
74793;SDS011;63320;50.768;6.724;2022-12-20T00:08:13;8.15;;;1.70;;
74793;SDS011;63320;50.768;6.724;2022-12-20T00:10:40;4.43;;;1.73;;
74793;SDS011;63320;50.768;6.724;2022-12-20T00:13:07;5.00;;;1.70;;
74793;SDS011;63320;50.768;6.724;2022-12-20T00:15:34;4.93;;;1.83;;
74793;SDS011;63320;50.768;6.724;2022-12-20T00:17:59;5.05;;;1.85;;
74793;SDS011;63320;50.768;6.724;2022-12-20T00:20:25;6.40;;;1.83;;
74793;SDS011;63320;50.768;6.724;2022-12-20T00:22:51;5.38;;;1.92;;
74793;SDS011;63320;50.768;6.724;2022-12-20T00:25:16;5.82;;;1.98;;
74793;SDS011;63320;50.768;6.724;2022-12-20T00:27:41;4.22;;;1.75;;
74793;SDS011;63320;50.768;6.724;2022-12-20T00:30:08;4.68;;;1.90;;
74793;SDS011;63320;50.768;6.724;2022-12-20T00:32:34;4.57;;;1.55;;
74793;SDS011;63320;50.768;6.724;2022-12-20T00:35:00;5.55;;;1.90;;
74793;SDS011;63320;50.768;6.724;2022-12-20T00:37:25;4.45;;;1.70;;
74793;SDS011;63320;50.768;6.724;2022-12-20T00:39:50;6.00;;;2.00;;
74793;SDS011;63320;50.768;6.724;2022-12-20T00:42:16;4.10;;;1.77;;
74793;SDS011;63320;50.768;6.724;2022-12-20T00:44:41;4.53;;;1.83;;
74793;SDS011;63320;50.768;6.724;2022-12-20T00:47:08;5.35;;;1.60;;
74793;SDS011;63320;50.768;6.724;2022-12-20T00:49:33;4.47;;;1.70;;
74793;SDS011;63320;50.768;6.724;2022-12-20T00:51:58;4.82;;;1.80;;
74793;SDS011;63320;50.768;6.724;2022-12-20T00:54:24;4.57;;;2.03;;
74793;SDS011;63320;50.768;6.724;2022-12-20T00:56:49;7.47;;;2.30;;
74793;SDS011;63320;50.768;6.724;2022-12-20T00:59:14;5.55;;;2.28;;
74793;SDS011;63320;50.768;6.724;2022-12-20T01:01:40;5.35;;;2.03;;
74793;SDS011;63320;50.768;6.724;2022-12-20T01:04:06;5.22;;;2.08;;
74793;SDS011;63320;50.768;6.724;2022-12-20T01:06:32;6.07;;;2.10;;
74793;SDS011;63320;50.768;6.724;2022-12-20T01:08:58;6.03;;;2.58;;
74793;SDS011;63320;50.768;6.724;2022-12-20T01:11:24;6.07;;;2.40;;
74793;SDS011;63320;50.768;6.724;2022-12-20T01:13:51;5.13;;;2.65;;
74793;SDS011;63320;50.768;6.724;2022-12-20T01:16:19;7.90;;;2.63;;
74793;SDS011;63320;50.768;6.724;2022-12-20T01:18:46;6.43;;;2.60;;
74793;SDS011;63320;50.768;6.724;2022-12-20T01:21:15;5.50;;;2.42;;
74793;SDS011;63320;50.768;6.724;2022-12-20T01:23:41;5.60;;;2.28;;
74793;SDS011;63320;50.768;6.724;2022-12-20T01:26:09;8.82;;;3.75;;
74793;SDS011;63320;50.768;6.724;2022-12-20T01:28:36;6.05;;;2.65;;
74793;SDS011;63320;50.768;6.724;2022-12-20T01:31:04;6.57;;;2.70;;
74793;SDS011;63320;50.768;6.724;2022-12-20T01:33:30;6.80;;;2.80;;
74793;SDS011;63320;50.768;6.724;2022-12-20T01:35:56;5.70;;;2.55;;
74793;SDS011;63320;50.768;6.724;2022-12-20T01:38:23;6.45;;;2.95;;
74793;SDS011;63320;50.768;6.724;2022-12-20T01:40:49;7.40;;;2.80;;
74793;SDS011;63320;50.768;6.724;2022-12-20T01:43:14;6.30;;;2.35;;
74793;SDS011;63320;50.768;6.724;2022-12-20T01:45:43;6.28;;;2.30;;
74793;SDS011;63320;50.768;6.724;2022-12-20T01:48:08;8.13;;;2.70;;
74793;SDS011;63320;50.768;6.724;2022-12-20T01:50:35;4.28;;;2.28;;
74793;SDS011;63320;50.768;6.724;2022-12-20T01:53:01;5.30;;;2.28;;
74793;SDS011;63320;50.768;6.724;2022-12-20T01:55:29;6.18;;;2.60;;
74793;SDS011;63320;50.768;6.724;2022-12-20T01:57:57;6.03;;;2.45;;
74793;SDS011;63320;50.768;6.724;2022-12-20T02:00:26;6.53;;;2.50;;
74793;SDS011;63320;50.768;6.724;2022-12-20T02:02:51;5.65;;;2.42;;
74793;SDS011;63320;50.768;6.724;2022-12-20T02:05:19;7.00;;;2.70;;
74793;SDS011;63320;50.768;6.724;2022-12-20T02:07:47;4.72;;;2.33;;
74793;SDS011;63320;50.768;6.724;2022-12-20T02:10:15;5.88;;;2.58;;
74793;SDS011;63320;50.768;6.724;2022-12-20T02:12:44;5.78;;;2.55;;
74793;SDS011;63320;50.768;6.724;2022-12-20T02:15:18;6.20;;;2.40;;
74793;SDS011;63320;50.768;6.724;2022-12-20T02:17:55;5.72;;;2.13;;
74793;SDS011;63320;50.768;6.724;2022-12-20T02:20:39;5.82;;;2.05;;
74793;SDS011;63320;50.768;6.724;2022-12-20T02:23:35;5.03;;;2.17;;
74793;SDS011;63320;50.768;6.724;2022-12-20T02:26:16;6.32;;;2.40;;
74793;SDS011;63320;50.768;6.724;2022-12-20T02:29:09;5.18;;;2.40;;
74793;SDS011;63320;50.768;6.724;2022-12-20T02:31:46;5.35;;;2.63;;
74793;SDS011;63320;50.768;6.724;2022-12-20T02:34:17;5.88;;;2.42;;
74793;SDS011;63320;50.768;6.724;2022-12-20T02:36:45;7.68;;;2.75;;
74793;SDS011;63320;50.768;6.724;2022-12-20T02:39:11;4.68;;;2.35;;
74793;SDS011;63320;50.768;6.724;2022-12-20T02:41:37;6.05;;;2.45;;
74793;SDS011;63320;50.768;6.724;2022-12-20T02:44:07;6.60;;;2.60;;
74793;SDS011;63320;50.768;6.724;2022-12-20T02:46:38;6.15;;;2.53;;
74793;SDS011;63320;50.768;6.724;2022-12-20T02:49:07;5.80;;;2.33;;
74793;SDS011;63320;50.768;6.724;2022-12-20T02:51:34;7.20;;;2.10;;
74793;SDS011;63320;50.768;6.724;2022-12-20T02:54:00;5.40;;;2.47;;
74793;SDS011;63320;50.768;6.724;2022-12-20T02:56:27;6.25;;;2.13;;
74793;SDS011;63320;50.768;6.724;2022-12-20T02:58:57;5.75;;;2.55;;
74793;SDS011;63320;50.768;6.724;2022-12-20T03:01:27;5.53;;;2.28;;
74793;SDS011;63320;50.768;6.724;2022-12-20T03:03:55;5.13;;;2.28;;
74793;SDS011;63320;50.768;6.724;2022-12-20T03:06:24;5.25;;;2.40;;
74793;SDS011;63320;50.768;6.724;2022-12-20T03:08:49;5.53;;;2.50;;
74793;SDS011;63320;50.768;6.724;2022-12-20T03:11:15;4.90;;;2.10;;
74793;SDS011;63320;50.768;6.724;2022-12-20T03:13:40;5.05;;;2.00;;
74793;SDS011;63320;50.768;6.724;2022-12-20T03:16:05;4.97;;;2.20;;
74793;SDS011;63320;50.768;6.724;2022-12-20T03:18:31;4.68;;;2.25;;
74793;SDS011;63320;50.768;6.724;2022-12-20T03:20:57;6.65;;;2.30;;
74793;SDS011;63320;50.768;6.724;2022-12-20T03:23:23;5.50;;;2.42;;
74793;SDS011;63320;50.768;6.724;2022-12-20T03:25:49;7.18;;;2.65;;
74793;SDS011;63320;50.768;6.724;2022-12-20T03:28:14;4.90;;;2.20;;
74793;SDS011;63320;50.768;6.724;2022-12-20T03:30:39;6.75;;;2.67;;
74793;SDS011;63320;50.768;6.724;2022-12-20T03:33:05;6.07;;;2.25;;
74793;SDS011;63320;50.768;6.724;2022-12-20T03:35:30;6.03;;;2.28;;
74793;SDS011;63320;50.768;6.724;2022-12-20T03:37:55;6.95;;;2.58;;
74793;SDS011;63320;50.768;6.724;2022-12-20T03:40:22;5.55;;;2.20;;
74793;SDS011;63320;50.768;6.724;2022-12-20T03:42:47;4.85;;;2.17;;
74793;SDS011;63320;50.768;6.724;2022-12-20T03:45:13;6.18;;;2.30;;
74793;SDS011;63320;50.768;6.724;2022-12-20T03:47:38;6.88;;;2.20;;
74793;SDS011;63320;50.768;6.724;2022-12-20T03:50:04;4.60;;;1.90;;
74793;SDS011;63320;50.768;6.724;2022-12-20T03:52:31;6.05;;;2.10;;
74793;SDS011;63320;50.768;6.724;2022-12-20T03:54:56;5.65;;;2.15;;
74793;SDS011;63320;50.768;6.724;2022-12-20T03:57:23;4.35;;;2.10;;
74793;SDS011;63320;50.768;6.724;2022-12-20T03:59:48;5.97;;;2.03;;
74793;SDS011;63320;50.768;6.724;2022-12-20T04:02:13;4.50;;;1.90;;
74793;SDS011;63320;50.768;6.724;2022-12-20T04:04:39;4.30;;;2.03;;
74793;SDS011;63320;50.768;6.724;2022-12-20T04:07:04;5.18;;;2.20;;
74793;SDS011;63320;50.768;6.724;2022-12-20T04:09:30;4.72;;;2.13;;
74793;SDS011;63320;50.768;6.724;2022-12-20T04:11:55;5.88;;;2.15;;
74793;SDS011;63320;50.768;6.724;2022-12-20T04:14:22;5.60;;;2.22;;
74793;SDS011;63320;50.768;6.724;2022-12-20T04:16:47;3.75;;;1.92;;
74793;SDS011;63320;50.768;6.724;2022-12-20T04:19:13;6.75;;;2.70;;
74793;SDS011;63320;50.768;6.724;2022-12-20T04:21:38;4.30;;;2.05;;
74793;SDS011;63320;50.768;6.724;2022-12-20T04:24:04;5.10;;;2.40;;
74793;SDS011;63320;50.768;6.724;2022-12-20T04:26:30;5.05;;;2.25;;
74793;SDS011;63320;50.768;6.724;2022-12-20T04:28:56;6.82;;;2.50;;
74793;SDS011;63320;50.768;6.724;2022-12-20T04:31:23;4.78;;;2.47;;
74793;SDS011;63320;50.768;6.724;2022-12-20T04:33:48;4.82;;;2.40;;
74793;SDS011;63320;50.768;6.724;2022-12-20T04:36:14;7.10;;;2.47;;
74793;SDS011;63320;50.768;6.724;2022-12-20T04:38:40;4.13;;;2.20;;
74793;SDS011;63320;50.768;6.724;2022-12-20T04:41:05;8.45;;;2.80;;
74793;SDS011;63320;50.768;6.724;2022-12-20T04:43:30;5.07;;;2.88;;
74793;SDS011;63320;50.768;6.724;2022-12-20T04:45:56;6.15;;;2.60;;
74793;SDS011;63320;50.768;6.724;2022-12-20T04:48:23;5.72;;;2.70;;
74793;SDS011;63320;50.768;6.724;2022-12-20T04:50:50;6.20;;;3.47;;
74793;SDS011;63320;50.768;6.724;2022-12-20T04:53:15;6.82;;;3.03;;
74793;SDS011;63320;50.768;6.724;2022-12-20T04:55:41;6.85;;;2.50;;
74793;SDS011;63320;50.768;6.724;2022-12-20T04:58:06;6.30;;;3.22;;
74793;SDS011;63320;50.768;6.724;2022-12-20T05:00:32;6.38;;;3.03;;
74793;SDS011;63320;50.768;6.724;2022-12-20T05:02:57;6.85;;;2.85;;
74793;SDS011;63320;50.768;6.724;2022-12-20T05:05:24;8.13;;;3.40;;
74793;SDS011;63320;50.768;6.724;2022-12-20T05:07:50;6.40;;;2.50;;
74793;SDS011;63320;50.768;6.724;2022-12-20T05:10:16;4.88;;;2.38;;
74793;SDS011;63320;50.768;6.724;2022-12-20T05:12:42;4.32;;;2.20;;
74793;SDS011;63320;50.768;6.724;2022-12-20T05:15:08;6.57;;;2.15;;
74793;SDS011;63320;50.768;6.724;2022-12-20T05:17:34;7.05;;;2.80;;
74793;SDS011;63320;50.768;6.724;2022-12-20T05:19:59;6.03;;;1.95;;
74793;SDS011;63320;50.768;6.724;2022-12-20T05:22:26;5.60;;;2.00;;
74793;SDS011;63320;50.768;6.724;2022-12-20T05:24:51;6.63;;;2.20;;
74793;SDS011;63320;50.768;6.724;2022-12-20T05:27:17;4.72;;;2.00;;
74793;SDS011;63320;50.768;6.724;2022-12-20T05:29:42;5.93;;;2.20;;
74793;SDS011;63320;50.768;6.724;2022-12-20T05:32:07;4.43;;;2.10;;
74793;SDS011;63320;50.768;6.724;2022-12-20T05:34:33;6.15;;;2.30;;
74793;SDS011;63320;50.768;6.724;2022-12-20T05:36:58;6.40;;;2.30;;
74793;SDS011;63320;50.768;6.724;2022-12-20T05:39:25;5.50;;;2.22;;
74793;SDS011;63320;50.768;6.724;2022-12-20T05:41:50;5.10;;;2.30;;
74793;SDS011;63320;50.768;6.724;2022-12-20T05:44:15;6.63;;;2.65;;
74793;SDS011;63320;50.768;6.724;2022-12-20T05:46:41;7.45;;;2.90;;
74793;SDS011;63320;50.768;6.724;2022-12-20T05:49:06;5.50;;;2.72;;
74793;SDS011;63320;50.768;6.724;2022-12-20T05:51:31;8.50;;;3.33;;
74793;SDS011;63320;50.768;6.724;2022-12-20T05:53:57;6.70;;;3.22;;
74793;SDS011;63320;50.768;6.724;2022-12-20T05:56:23;6.35;;;3.50;;
74793;SDS011;63320;50.768;6.724;2022-12-20T05:58:49;6.82;;;3.80;;
74793;SDS011;63320;50.768;6.724;2022-12-20T06:01:14;6.80;;;3.13;;
74793;SDS011;63320;50.768;6.724;2022-12-20T06:03:39;6.80;;;2.70;;
74793;SDS011;63320;50.768;6.724;2022-12-20T06:06:05;6.88;;;2.83;;
74793;SDS011;63320;50.768;6.724;2022-12-20T06:08:31;5.03;;;2.30;;
74793;SDS011;63320;50.768;6.724;2022-12-20T06:10:57;5.18;;;2.30;;
74793;SDS011;63320;50.768;6.724;2022-12-20T06:13:23;7.28;;;2.20;;
74793;SDS011;63320;50.768;6.724;2022-12-20T06:15:49;7.90;;;2.25;;
74793;SDS011;63320;50.768;6.724;2022-12-20T06:18:14;4.93;;;2.05;;
74793;SDS011;63320;50.768;6.724;2022-12-20T06:20:39;5.15;;;2.30;;
74793;SDS011;63320;50.768;6.724;2022-12-20T06:23:05;7.45;;;2.80;;
74793;SDS011;63320;50.768;6.724;2022-12-20T06:25:30;6.30;;;2.80;;
74793;SDS011;63320;50.768;6.724;2022-12-20T06:27:56;7.50;;;2.63;;
74793;SDS011;63320;50.768;6.724;2022-12-20T06:30:22;5.45;;;2.92;;
74793;SDS011;63320;50.768;6.724;2022-12-20T06:32:48;4.53;;;2.42;;
74793;SDS011;63320;50.768;6.724;2022-12-20T06:35:13;5.50;;;2.55;;
74793;SDS011;63320;50.768;6.724;2022-12-20T06:37:39;9.25;;;3.40;;
74793;SDS011;63320;50.768;6.724;2022-12-20T06:40:05;6.80;;;2.90;;
74793;SDS011;63320;50.768;6.724;2022-12-20T06:42:31;5.47;;;2.40;;
74793;SDS011;63320;50.768;6.724;2022-12-20T06:44:57;5.00;;;2.28;;
74793;SDS011;63320;50.768;6.724;2022-12-20T06:47:23;6.90;;;2.55;;
74793;SDS011;63320;50.768;6.724;2022-12-20T06:49:49;4.95;;;1.77;;
74793;SDS011;63320;50.768;6.724;2022-12-20T06:52:14;5.10;;;1.90;;
74793;SDS011;63320;50.768;6.724;2022-12-20T06:54:39;5.32;;;2.05;;
74793;SDS011;63320;50.768;6.724;2022-12-20T06:57:05;5.88;;;1.98;;
74793;SDS011;63320;50.768;6.724;2022-12-20T06:59:30;5.55;;;2.15;;
74793;SDS011;63320;50.768;6.724;2022-12-20T07:01:56;5.40;;;1.88;;
74793;SDS011;63320;50.768;6.724;2022-12-20T07:04:22;4.93;;;2.22;;
74793;SDS011;63320;50.768;6.724;2022-12-20T07:06:48;4.78;;;2.22;;
74793;SDS011;63320;50.768;6.724;2022-12-20T07:09:13;6.05;;;2.25;;
74793;SDS011;63320;50.768;6.724;2022-12-20T07:11:39;8.00;;;2.65;;
74793;SDS011;63320;50.768;6.724;2022-12-20T07:14:05;7.03;;;2.50;;
74793;SDS011;63320;50.768;6.724;2022-12-20T07:16:30;7.10;;;2.97;;
74793;SDS011;63320;50.768;6.724;2022-12-20T07:18:55;6.78;;;2.40;;
74793;SDS011;63320;50.768;6.724;2022-12-20T07:21:22;5.68;;;2.47;;
74793;SDS011;63320;50.768;6.724;2022-12-20T07:23:47;6.95;;;2.70;;
74793;SDS011;63320;50.768;6.724;2022-12-20T07:26:13;5.90;;;2.08;;
74793;SDS011;63320;50.768;6.724;2022-12-20T07:28:39;5.75;;;2.30;;
74793;SDS011;63320;50.768;6.724;2022-12-20T07:31:04;6.75;;;2.08;;
74793;SDS011;63320;50.768;6.724;2022-12-20T07:33:30;5.38;;;2.17;;
74793;SDS011;63320;50.768;6.724;2022-12-20T07:35:58;5.00;;;2.22;;
74793;SDS011;63320;50.768;6.724;2022-12-20T07:38:26;5.15;;;1.80;;
74793;SDS011;63320;50.768;6.724;2022-12-20T07:40:51;5.20;;;2.20;;
74793;SDS011;63320;50.768;6.724;2022-12-20T07:43:16;6.57;;;2.20;;
74793;SDS011;63320;50.768;6.724;2022-12-20T07:45:42;6.28;;;1.75;;
74793;SDS011;63320;50.768;6.724;2022-12-20T07:48:07;6.63;;;2.10;;
74793;SDS011;63320;50.768;6.724;2022-12-20T07:50:32;4.85;;;1.70;;
74793;SDS011;63320;50.768;6.724;2022-12-20T07:52:58;3.92;;;1.60;;
74793;SDS011;63320;50.768;6.724;2022-12-20T07:55:26;7.00;;;2.38;;
74793;SDS011;63320;50.768;6.724;2022-12-20T07:57:52;6.07;;;1.95;;
74793;SDS011;63320;50.768;6.724;2022-12-20T08:00:21;5.25;;;1.85;;
74793;SDS011;63320;50.768;6.724;2022-12-20T08:02:47;6.68;;;2.00;;
74793;SDS011;63320;50.768;6.724;2022-12-20T08:05:18;6.90;;;2.58;;
74793;SDS011;63320;50.768;6.724;2022-12-20T08:07:43;5.00;;;1.60;;
74793;SDS011;63320;50.768;6.724;2022-12-20T08:10:11;6.32;;;1.98;;
74793;SDS011;63320;50.768;6.724;2022-12-20T08:12:39;5.57;;;1.98;;
74793;SDS011;63320;50.768;6.724;2022-12-20T08:15:06;3.90;;;1.60;;
74793;SDS011;63320;50.768;6.724;2022-12-20T08:17:32;6.07;;;2.03;;
74793;SDS011;63320;50.768;6.724;2022-12-20T08:19:57;6.80;;;1.90;;
74793;SDS011;63320;50.768;6.724;2022-12-20T08:22:23;5.28;;;1.92;;
74793;SDS011;63320;50.768;6.724;2022-12-20T08:24:48;5.70;;;2.50;;
74793;SDS011;63320;50.768;6.724;2022-12-20T08:27:13;7.03;;;2.10;;
74793;SDS011;63320;50.768;6.724;2022-12-20T08:29:40;8.18;;;3.08;;
74793;SDS011;63320;50.768;6.724;2022-12-20T08:32:05;8.00;;;2.95;;
74793;SDS011;63320;50.768;6.724;2022-12-20T08:36:57;4.37;;;2.03;;
74793;SDS011;63320;50.768;6.724;2022-12-20T08:39:23;7.32;;;2.90;;
74793;SDS011;63320;50.768;6.724;2022-12-20T08:41:48;6.35;;;2.80;;
74793;SDS011;63320;50.768;6.724;2022-12-20T08:44:13;7.65;;;2.17;;
74793;SDS011;63320;50.768;6.724;2022-12-20T08:46:40;6.90;;;2.08;;
74793;SDS011;63320;50.768;6.724;2022-12-20T08:49:05;5.55;;;2.00;;
74793;SDS011;63320;50.768;6.724;2022-12-20T08:51:31;7.57;;;3.03;;
74793;SDS011;63320;50.768;6.724;2022-12-20T08:53:56;6.88;;;1.50;;
74793;SDS011;63320;50.768;6.724;2022-12-20T08:56:21;6.10;;;1.83;;
74793;SDS011;63320;50.768;6.724;2022-12-20T08:58:47;5.22;;;1.58;;
74793;SDS011;63320;50.768;6.724;2022-12-20T09:01:13;4.88;;;1.80;;
74793;SDS011;63320;50.768;6.724;2022-12-20T09:03:41;5.57;;;1.70;;
74793;SDS011;63320;50.768;6.724;2022-12-20T09:06:07;4.78;;;1.58;;
74793;SDS011;63320;50.768;6.724;2022-12-20T09:08:34;4.60;;;1.48;;
74793;SDS011;63320;50.768;6.724;2022-12-20T09:11:04;4.30;;;1.27;;
74793;SDS011;63320;50.768;6.724;2022-12-20T09:13:30;3.25;;;1.45;;
74793;SDS011;63320;50.768;6.724;2022-12-20T09:15:55;4.57;;;1.70;;
74793;SDS011;63320;50.768;6.724;2022-12-20T09:18:24;3.80;;;1.60;;
74793;SDS011;63320;50.768;6.724;2022-12-20T09:20:51;5.53;;;1.70;;
74793;SDS011;63320;50.768;6.724;2022-12-20T09:23:16;5.50;;;2.35;;
74793;SDS011;63320;50.768;6.724;2022-12-20T09:25:41;4.90;;;1.70;;
74793;SDS011;63320;50.768;6.724;2022-12-20T09:28:06;5.18;;;1.77;;
74793;SDS011;63320;50.768;6.724;2022-12-20T09:30:32;6.10;;;2.28;;
74793;SDS011;63320;50.768;6.724;2022-12-20T09:32:57;8.48;;;3.28;;
74793;SDS011;63320;50.768;6.724;2022-12-20T09:35:22;5.70;;;2.50;;
74793;SDS011;63320;50.768;6.724;2022-12-20T09:37:49;5.20;;;2.40;;
74793;SDS011;63320;50.768;6.724;2022-12-20T09:40:16;6.25;;;2.00;;
74793;SDS011;63320;50.768;6.724;2022-12-20T09:42:44;6.35;;;2.30;;
74793;SDS011;63320;50.768;6.724;2022-12-20T09:45:10;6.68;;;2.40;;
74793;SDS011;63320;50.768;6.724;2022-12-20T09:47:43;4.93;;;2.05;;
74793;SDS011;63320;50.768;6.724;2022-12-20T09:50:10;4.35;;;1.70;;
74793;SDS011;63320;50.768;6.724;2022-12-20T09:52:44;6.18;;;1.95;;
74793;SDS011;63320;50.768;6.724;2022-12-20T09:55:22;5.63;;;1.73;;
74793;SDS011;63320;50.768;6.724;2022-12-20T09:57:55;5.35;;;1.50;;
74793;SDS011;63320;50.768;6.724;2022-12-20T10:00:28;2.85;;;1.23;;
74793;SDS011;63320;50.768;6.724;2022-12-20T10:02:53;2.80;;;1.27;;
74793;SDS011;63320;50.768;6.724;2022-12-20T10:05:21;3.08;;;1.20;;
74793;SDS011;63320;50.768;6.724;2022-12-20T10:07:59;4.85;;;1.60;;
74793;SDS011;63320;50.768;6.724;2022-12-20T10:10:40;3.92;;;1.40;;
74793;SDS011;63320;50.768;6.724;2022-12-20T10:13:20;3.95;;;1.52;;
74793;SDS011;63320;50.768;6.724;2022-12-20T10:15:57;4.20;;;1.70;;
74793;SDS011;63320;50.768;6.724;2022-12-20T10:18:38;3.63;;;1.33;;
74793;SDS011;63320;50.768;6.724;2022-12-20T10:21:16;3.67;;;1.02;;
74793;SDS011;63320;50.768;6.724;2022-12-20T10:23:53;4.47;;;1.23;;
74793;SDS011;63320;50.768;6.724;2022-12-20T10:26:26;3.47;;;1.27;;
74793;SDS011;63320;50.768;6.724;2022-12-20T10:28:52;3.42;;;1.20;;
74793;SDS011;63320;50.768;6.724;2022-12-20T10:31:18;4.47;;;1.30;;
74793;SDS011;63320;50.768;6.724;2022-12-20T10:33:44;7.13;;;1.50;;
74793;SDS011;63320;50.768;6.724;2022-12-20T10:36:16;5.78;;;1.40;;
74793;SDS011;63320;50.768;6.724;2022-12-20T10:38:43;3.80;;;1.38;;
74793;SDS011;63320;50.768;6.724;2022-12-20T10:41:10;5.05;;;1.50;;
74793;SDS011;63320;50.768;6.724;2022-12-20T10:43:43;4.50;;;1.70;;
74793;SDS011;63320;50.768;6.724;2022-12-20T10:46:10;3.22;;;1.17;;
74793;SDS011;63320;50.768;6.724;2022-12-20T10:48:37;5.60;;;1.55;;
74793;SDS011;63320;50.768;6.724;2022-12-20T10:51:12;3.72;;;1.40;;
74793;SDS011;63320;50.768;6.724;2022-12-20T10:53:48;5.32;;;1.70;;
74793;SDS011;63320;50.768;6.724;2022-12-20T10:56:17;5.40;;;1.50;;
74793;SDS011;63320;50.768;6.724;2022-12-20T10:58:52;4.05;;;1.40;;
74793;SDS011;63320;50.768;6.724;2022-12-20T11:01:20;4.50;;;1.38;;
74793;SDS011;63320;50.768;6.724;2022-12-20T11:03:51;5.00;;;1.35;;
74793;SDS011;63320;50.768;6.724;2022-12-20T11:06:19;3.78;;;1.20;;
74793;SDS011;63320;50.768;6.724;2022-12-20T11:08:46;4.32;;;1.55;;
74793;SDS011;63320;50.768;6.724;2022-12-20T11:11:12;4.00;;;1.40;;
74793;SDS011;63320;50.768;6.724;2022-12-20T11:13:40;3.92;;;1.17;;
74793;SDS011;63320;50.768;6.724;2022-12-20T11:16:19;4.32;;;1.23;;
74793;SDS011;63320;50.768;6.724;2022-12-20T11:18:49;5.07;;;1.40;;
74793;SDS011;63320;50.768;6.724;2022-12-20T11:21:21;3.78;;;1.40;;
74793;SDS011;63320;50.768;6.724;2022-12-20T11:23:57;4.97;;;1.45;;
74793;SDS011;63320;50.768;6.724;2022-12-20T11:26:34;5.00;;;1.30;;
74793;SDS011;63320;50.768;6.724;2022-12-20T11:29:15;2.88;;;1.27;;
74793;SDS011;63320;50.768;6.724;2022-12-20T11:31:55;6.03;;;1.20;;
74793;SDS011;63320;50.768;6.724;2022-12-20T11:34:32;5.32;;;1.30;;
74793;SDS011;63320;50.768;6.724;2022-12-20T11:37:17;4.55;;;1.50;;
74793;SDS011;63320;50.768;6.724;2022-12-20T11:39:50;3.92;;;1.27;;
74793;SDS011;63320;50.768;6.724;2022-12-20T11:42:27;4.45;;;1.15;;
74793;SDS011;63320;50.768;6.724;2022-12-20T11:45:03;9.40;;;1.60;;
74793;SDS011;63320;50.768;6.724;2022-12-20T11:47:41;4.50;;;1.27;;
74793;SDS011;63320;50.768;6.724;2022-12-20T11:50:37;3.15;;;1.10;;
74793;SDS011;63320;50.768;6.724;2022-12-20T11:53:11;4.75;;;1.15;;
74793;SDS011;63320;50.768;6.724;2022-12-20T11:55:40;3.83;;;1.35;;
74793;SDS011;63320;50.768;6.724;2022-12-20T11:58:10;5.82;;;1.60;;
74793;SDS011;63320;50.768;6.724;2022-12-20T12:00:43;4.40;;;1.60;;
74793;SDS011;63320;50.768;6.724;2022-12-20T12:03:17;4.75;;;1.40;;
74793;SDS011;63320;50.768;6.724;2022-12-20T12:05:46;3.95;;;1.33;;
74793;SDS011;63320;50.768;6.724;2022-12-20T12:08:15;3.70;;;1.55;;
74793;SDS011;63320;50.768;6.724;2022-12-20T12:10:44;5.13;;;1.50;;
74793;SDS011;63320;50.768;6.724;2022-12-20T12:13:20;4.82;;;1.23;;
74793;SDS011;63320;50.768;6.724;2022-12-20T12:15:51;3.92;;;1.48;;
74793;SDS011;63320;50.768;6.724;2022-12-20T12:18:24;3.72;;;1.30;;
74793;SDS011;63320;50.768;6.724;2022-12-20T12:20:55;3.85;;;1.15;;
74793;SDS011;63320;50.768;6.724;2022-12-20T12:23:26;5.03;;;1.30;;
74793;SDS011;63320;50.768;6.724;2022-12-20T12:25:57;3.67;;;1.10;;
74793;SDS011;63320;50.768;6.724;2022-12-20T12:28:26;5.18;;;1.30;;
74793;SDS011;63320;50.768;6.724;2022-12-20T12:30:53;3.33;;;1.20;;
74793;SDS011;63320;50.768;6.724;2022-12-20T12:35:58;5.55;;;1.05;;
74793;SDS011;63320;50.768;6.724;2022-12-20T12:38:50;3.85;;;1.25;;
74793;SDS011;63320;50.768;6.724;2022-12-20T12:44:32;5.30;;;1.17;;
74793;SDS011;63320;50.768;6.724;2022-12-20T12:47:05;3.80;;;1.13;;
74793;SDS011;63320;50.768;6.724;2022-12-20T12:49:38;3.67;;;1.20;;
74793;SDS011;63320;50.768;6.724;2022-12-20T12:52:04;3.80;;;1.27;;
74793;SDS011;63320;50.768;6.724;2022-12-20T12:54:34;3.90;;;1.17;;
74793;SDS011;63320;50.768;6.724;2022-12-20T12:57:02;4.80;;;1.17;;
74793;SDS011;63320;50.768;6.724;2022-12-20T12:59:42;4.95;;;1.30;;
74793;SDS011;63320;50.768;6.724;2022-12-20T13:05:34;3.20;;;1.10;;
74793;SDS011;63320;50.768;6.724;2022-12-20T13:08:00;4.50;;;1.20;;
74793;SDS011;63320;50.768;6.724;2022-12-20T13:13:20;4.55;;;1.35;;
74793;SDS011;63320;50.768;6.724;2022-12-20T13:15:51;3.35;;;1.02;;
74793;SDS011;63320;50.768;6.724;2022-12-20T13:18:28;4.90;;;1.30;;
74793;SDS011;63320;50.768;6.724;2022-12-20T13:24:01;4.45;;;1.60;;
74793;SDS011;63320;50.768;6.724;2022-12-20T13:27:00;5.82;;;2.10;;
74793;SDS011;63320;50.768;6.724;2022-12-20T13:29:27;4.40;;;1.30;;
74793;SDS011;63320;50.768;6.724;2022-12-20T13:31:58;4.60;;;1.40;;
74793;SDS011;63320;50.768;6.724;2022-12-20T13:37:25;3.95;;;1.20;;
74793;SDS011;63320;50.768;6.724;2022-12-20T13:39:52;4.85;;;1.20;;
74793;SDS011;63320;50.768;6.724;2022-12-20T13:42:21;8.98;;;3.63;;
74793;SDS011;63320;50.768;6.724;2022-12-20T13:44:56;12.77;;;5.30;;
74793;SDS011;63320;50.768;6.724;2022-12-20T13:47:30;5.03;;;1.60;;
74793;SDS011;63320;50.768;6.724;2022-12-20T13:50:00;4.90;;;1.98;;
74793;SDS011;63320;50.768;6.724;2022-12-20T13:52:47;4.40;;;1.75;;
74793;SDS011;63320;50.768;6.724;2022-12-20T13:55:15;4.45;;;1.98;;
74793;SDS011;63320;50.768;6.724;2022-12-20T13:57:47;4.63;;;1.60;;
74793;SDS011;63320;50.768;6.724;2022-12-20T14:00:14;3.97;;;1.65;;
74793;SDS011;63320;50.768;6.724;2022-12-20T14:02:40;5.57;;;1.73;;
74793;SDS011;63320;50.768;6.724;2022-12-20T14:05:12;4.45;;;1.42;;
74793;SDS011;63320;50.768;6.724;2022-12-20T14:07:40;5.50;;;1.38;;
74793;SDS011;63320;50.768;6.724;2022-12-20T14:10:16;4.18;;;1.52;;
74793;SDS011;63320;50.768;6.724;2022-12-20T14:12:44;6.97;;;1.70;;
74793;SDS011;63320;50.768;6.724;2022-12-20T14:15:19;4.72;;;1.60;;
74793;SDS011;63320;50.768;6.724;2022-12-20T14:20:12;4.07;;;1.80;;
74793;SDS011;63320;50.768;6.724;2022-12-20T14:22:40;6.30;;;2.30;;
74793;SDS011;63320;50.768;6.724;2022-12-20T14:25:10;5.82;;;2.50;;
74793;SDS011;63320;50.768;6.724;2022-12-20T14:27:41;4.82;;;2.30;;
74793;SDS011;63320;50.768;6.724;2022-12-20T14:32:50;3.63;;;1.70;;
74793;SDS011;63320;50.768;6.724;2022-12-20T14:35:17;6.18;;;2.80;;
74793;SDS011;63320;50.768;6.724;2022-12-20T14:37:51;7.10;;;3.40;;
74793;SDS011;63320;50.768;6.724;2022-12-20T14:40:18;8.55;;;4.22;;
74793;SDS011;63320;50.768;6.724;2022-12-20T14:42:46;7.53;;;3.35;;
74793;SDS011;63320;50.768;6.724;2022-12-20T14:45:16;6.72;;;2.88;;
74793;SDS011;63320;50.768;6.724;2022-12-20T14:47:47;6.57;;;3.15;;
74793;SDS011;63320;50.768;6.724;2022-12-20T14:50:16;8.10;;;3.45;;
74793;SDS011;63320;50.768;6.724;2022-12-20T14:52:52;7.75;;;3.47;;
74793;SDS011;63320;50.768;6.724;2022-12-20T14:55:18;7.28;;;3.10;;
74793;SDS011;63320;50.768;6.724;2022-12-20T14:57:48;18.27;;;7.22;;
74793;SDS011;63320;50.768;6.724;2022-12-20T15:00:19;14.43;;;4.90;;
74793;SDS011;63320;50.768;6.724;2022-12-20T15:02:49;16.83;;;6.93;;
74793;SDS011;63320;50.768;6.724;2022-12-20T15:08:13;9.50;;;3.45;;
74793;SDS011;63320;50.768;6.724;2022-12-20T15:10:41;8.15;;;2.85;;
74793;SDS011;63320;50.768;6.724;2022-12-20T15:13:12;5.82;;;1.70;;
74793;SDS011;63320;50.768;6.724;2022-12-20T15:15:39;5.45;;;1.40;;
74793;SDS011;63320;50.768;6.724;2022-12-20T15:18:07;3.90;;;1.38;;
74793;SDS011;63320;50.768;6.724;2022-12-20T15:20:35;8.52;;;2.88;;
74793;SDS011;63320;50.768;6.724;2022-12-20T15:23:01;19.00;;;7.25;;